sensor_id;sensor_type;location;lat;lon;timestamp;P1;durP1;ratioP1;P2;durP2;ratioP2
77206;SDS011;66190;50.708;7.906;2023-12-22T00:01:38;8.07;;;1.50;;
77206;SDS011;66190;50.708;7.906;2023-12-22T00:04:03;6.97;;;1.00;;
77206;SDS011;66190;50.708;7.906;2023-12-22T00:06:31;3.00;;;0.50;;
77206;SDS011;66190;50.708;7.906;2023-12-22T00:08:57;2.83;;;0.55;;
77206;SDS011;66190;50.708;7.906;2023-12-22T00:11:22;4.73;;;1.00;;
77206;SDS011;66190;50.708;7.906;2023-12-22T00:13:48;4.20;;;0.60;;
77206;SDS011;66190;50.708;7.906;2023-12-22T00:16:13;4.23;;;0.60;;
77206;SDS011;66190;50.708;7.906;2023-12-22T00:18:39;4.97;;;0.70;;
77206;SDS011;66190;50.708;7.906;2023-12-22T00:21:04;3.42;;;0.60;;
77206;SDS011;66190;50.708;7.906;2023-12-22T00:23:29;3.50;;;0.60;;
77206;SDS011;66190;50.708;7.906;2023-12-22T00:25:57;3.20;;;0.63;;
77206;SDS011;66190;50.708;7.906;2023-12-22T00:28:22;8.07;;;1.00;;
77206;SDS011;66190;50.708;7.906;2023-12-22T00:30:48;4.23;;;0.73;;
77206;SDS011;66190;50.708;7.906;2023-12-22T00:33:13;1.73;;;0.40;;
77206;SDS011;66190;50.708;7.906;2023-12-22T00:35:39;1.63;;;0.30;;
77206;SDS011;66190;50.708;7.906;2023-12-22T00:38:04;4.13;;;0.70;;
77206;SDS011;66190;50.708;7.906;2023-12-22T00:40:29;2.22;;;0.30;;
77206;SDS011;66190;50.708;7.906;2023-12-22T00:42:55;4.55;;;0.75;;
77206;SDS011;66190;50.708;7.906;2023-12-22T00:45:20;4.73;;;0.77;;
77206;SDS011;66190;50.708;7.906;2023-12-22T00:47:46;2.67;;;0.50;;
77206;SDS011;66190;50.708;7.906;2023-12-22T00:50:11;3.80;;;1.10;;
77206;SDS011;66190;50.708;7.906;2023-12-22T00:52:37;4.38;;;0.70;;
77206;SDS011;66190;50.708;7.906;2023-12-22T00:55:02;3.27;;;0.40;;
77206;SDS011;66190;50.708;7.906;2023-12-22T00:57:27;3.13;;;0.67;;
77206;SDS011;66190;50.708;7.906;2023-12-22T00:59:53;3.97;;;0.60;;
77206;SDS011;66190;50.708;7.906;2023-12-22T01:02:18;2.70;;;0.50;;
77206;SDS011;66190;50.708;7.906;2023-12-22T01:04:45;3.30;;;0.60;;
77206;SDS011;66190;50.708;7.906;2023-12-22T01:07:10;2.00;;;0.40;;
77206;SDS011;66190;50.708;7.906;2023-12-22T01:09:36;1.52;;;0.30;;
77206;SDS011;66190;50.708;7.906;2023-12-22T01:12:03;1.90;;;0.43;;
77206;SDS011;66190;50.708;7.906;2023-12-22T01:14:29;3.30;;;0.40;;
77206;SDS011;66190;50.708;7.906;2023-12-22T01:16:55;3.25;;;0.57;;
77206;SDS011;66190;50.708;7.906;2023-12-22T01:19:20;1.73;;;0.40;;
77206;SDS011;66190;50.708;7.906;2023-12-22T01:21:46;4.13;;;0.52;;
77206;SDS011;66190;50.708;7.906;2023-12-22T01:24:11;6.67;;;1.13;;
77206;SDS011;66190;50.708;7.906;2023-12-22T01:26:36;5.40;;;0.80;;
77206;SDS011;66190;50.708;7.906;2023-12-22T01:29:02;2.73;;;0.40;;
77206;SDS011;66190;50.708;7.906;2023-12-22T01:31:28;2.78;;;0.50;;
77206;SDS011;66190;50.708;7.906;2023-12-22T01:33:53;4.30;;;0.70;;
77206;SDS011;66190;50.708;7.906;2023-12-22T01:36:19;5.07;;;0.90;;
77206;SDS011;66190;50.708;7.906;2023-12-22T01:38:44;4.10;;;0.60;;
77206;SDS011;66190;50.708;7.906;2023-12-22T01:41:09;3.50;;;0.70;;
77206;SDS011;66190;50.708;7.906;2023-12-22T01:43:35;4.78;;;0.90;;
77206;SDS011;66190;50.708;7.906;2023-12-22T01:46:00;4.23;;;0.97;;
77206;SDS011;66190;50.708;7.906;2023-12-22T01:48:27;4.47;;;0.80;;
77206;SDS011;66190;50.708;7.906;2023-12-22T01:50:53;5.95;;;1.30;;
77206;SDS011;66190;50.708;7.906;2023-12-22T01:53:20;3.40;;;0.60;;
77206;SDS011;66190;50.708;7.906;2023-12-22T01:55:48;6.35;;;0.88;;
77206;SDS011;66190;50.708;7.906;2023-12-22T01:58:15;5.03;;;0.75;;
77206;SDS011;66190;50.708;7.906;2023-12-22T02:00:41;4.93;;;0.80;;
77206;SDS011;66190;50.708;7.906;2023-12-22T02:03:07;3.27;;;0.80;;
77206;SDS011;66190;50.708;7.906;2023-12-22T02:05:33;4.43;;;0.80;;
77206;SDS011;66190;50.708;7.906;2023-12-22T02:07:59;2.27;;;0.60;;
77206;SDS011;66190;50.708;7.906;2023-12-22T02:10:25;5.32;;;0.60;;
77206;SDS011;66190;50.708;7.906;2023-12-22T02:12:50;3.90;;;0.50;;
77206;SDS011;66190;50.708;7.906;2023-12-22T02:15:16;3.22;;;0.40;;
77206;SDS011;66190;50.708;7.906;2023-12-22T02:17:49;3.17;;;0.50;;
77206;SDS011;66190;50.708;7.906;2023-12-22T02:20:21;5.95;;;0.50;;
77206;SDS011;66190;50.708;7.906;2023-12-22T02:22:50;1.98;;;0.35;;
77206;SDS011;66190;50.708;7.906;2023-12-22T02:25:19;3.03;;;0.50;;
77206;SDS011;66190;50.708;7.906;2023-12-22T02:27:48;3.85;;;0.55;;
77206;SDS011;66190;50.708;7.906;2023-12-22T02:30:19;3.95;;;0.50;;
77206;SDS011;66190;50.708;7.906;2023-12-22T02:32:55;3.90;;;0.40;;
77206;SDS011;66190;50.708;7.906;2023-12-22T02:35:25;2.53;;;0.38;;
77206;SDS011;66190;50.708;7.906;2023-12-22T02:37:51;2.08;;;0.40;;
77206;SDS011;66190;50.708;7.906;2023-12-22T02:40:19;3.33;;;0.85;;
77206;SDS011;66190;50.708;7.906;2023-12-22T02:42:45;4.78;;;0.50;;
77206;SDS011;66190;50.708;7.906;2023-12-22T02:45:15;4.27;;;0.73;;
77206;SDS011;66190;50.708;7.906;2023-12-22T02:47:41;2.67;;;0.47;;
77206;SDS011;66190;50.708;7.906;2023-12-22T02:50:07;4.25;;;0.50;;
77206;SDS011;66190;50.708;7.906;2023-12-22T02:52:33;3.75;;;0.75;;
77206;SDS011;66190;50.708;7.906;2023-12-22T02:55:00;4.20;;;0.60;;
77206;SDS011;66190;50.708;7.906;2023-12-22T02:57:26;4.57;;;0.88;;
77206;SDS011;66190;50.708;7.906;2023-12-22T02:59:51;7.57;;;1.10;;
77206;SDS011;66190;50.708;7.906;2023-12-22T03:02:17;9.50;;;1.27;;
77206;SDS011;66190;50.708;7.906;2023-12-22T03:04:43;7.70;;;1.10;;
77206;SDS011;66190;50.708;7.906;2023-12-22T03:07:08;11.90;;;1.70;;
77206;SDS011;66190;50.708;7.906;2023-12-22T03:09:34;3.85;;;1.27;;
77206;SDS011;66190;50.708;7.906;2023-12-22T03:11:59;7.47;;;1.25;;
77206;SDS011;66190;50.708;7.906;2023-12-22T03:14:31;4.90;;;1.13;;
77206;SDS011;66190;50.708;7.906;2023-12-22T03:17:01;8.88;;;1.20;;
77206;SDS011;66190;50.708;7.906;2023-12-22T03:19:31;5.72;;;1.30;;
77206;SDS011;66190;50.708;7.906;2023-12-22T03:21:57;5.50;;;1.17;;
77206;SDS011;66190;50.708;7.906;2023-12-22T03:24:23;6.33;;;1.13;;
77206;SDS011;66190;50.708;7.906;2023-12-22T03:26:49;6.63;;;0.73;;
77206;SDS011;66190;50.708;7.906;2023-12-22T03:29:15;4.20;;;0.68;;
77206;SDS011;66190;50.708;7.906;2023-12-22T03:31:41;2.42;;;0.68;;
77206;SDS011;66190;50.708;7.906;2023-12-22T03:34:06;5.95;;;0.70;;
77206;SDS011;66190;50.708;7.906;2023-12-22T03:36:32;2.87;;;0.60;;
77206;SDS011;66190;50.708;7.906;2023-12-22T03:38:57;4.67;;;0.50;;
77206;SDS011;66190;50.708;7.906;2023-12-22T03:41:23;3.67;;;0.57;;
77206;SDS011;66190;50.708;7.906;2023-12-22T03:43:48;2.87;;;0.33;;
77206;SDS011;66190;50.708;7.906;2023-12-22T03:46:14;1.80;;;0.40;;
77206;SDS011;66190;50.708;7.906;2023-12-22T03:48:39;4.80;;;0.60;;
77206;SDS011;66190;50.708;7.906;2023-12-22T03:51:05;4.18;;;0.60;;
77206;SDS011;66190;50.708;7.906;2023-12-22T03:53:30;3.00;;;0.57;;
77206;SDS011;66190;50.708;7.906;2023-12-22T03:55:56;5.67;;;0.70;;
77206;SDS011;66190;50.708;7.906;2023-12-22T03:58:21;5.07;;;0.90;;
77206;SDS011;66190;50.708;7.906;2023-12-22T04:00:46;2.70;;;0.70;;
77206;SDS011;66190;50.708;7.906;2023-12-22T04:03:12;3.20;;;0.60;;
77206;SDS011;66190;50.708;7.906;2023-12-22T04:05:38;5.43;;;0.90;;
77206;SDS011;66190;50.708;7.906;2023-12-22T04:08:03;5.55;;;0.90;;
77206;SDS011;66190;50.708;7.906;2023-12-22T04:10:29;5.15;;;1.00;;
77206;SDS011;66190;50.708;7.906;2023-12-22T04:12:55;6.60;;;1.00;;
77206;SDS011;66190;50.708;7.906;2023-12-22T04:15:20;10.77;;;1.67;;
77206;SDS011;66190;50.708;7.906;2023-12-22T04:17:46;6.37;;;1.20;;
77206;SDS011;66190;50.708;7.906;2023-12-22T04:20:11;7.40;;;0.93;;
77206;SDS011;66190;50.708;7.906;2023-12-22T04:22:38;6.20;;;1.50;;
77206;SDS011;66190;50.708;7.906;2023-12-22T04:25:03;8.60;;;1.90;;
77206;SDS011;66190;50.708;7.906;2023-12-22T04:27:30;8.70;;;1.63;;
77206;SDS011;66190;50.708;7.906;2023-12-22T04:29:56;8.23;;;1.53;;
77206;SDS011;66190;50.708;7.906;2023-12-22T04:32:21;7.63;;;1.83;;
77206;SDS011;66190;50.708;7.906;2023-12-22T04:34:47;7.78;;;1.70;;
77206;SDS011;66190;50.708;7.906;2023-12-22T04:37:12;8.07;;;1.63;;
77206;SDS011;66190;50.708;7.906;2023-12-22T04:39:37;12.07;;;2.00;;
77206;SDS011;66190;50.708;7.906;2023-12-22T04:42:03;12.17;;;2.07;;
77206;SDS011;66190;50.708;7.906;2023-12-22T04:44:28;6.18;;;1.25;;
77206;SDS011;66190;50.708;7.906;2023-12-22T04:46:54;6.70;;;1.40;;
77206;SDS011;66190;50.708;7.906;2023-12-22T04:49:19;10.40;;;2.50;;
77206;SDS011;66190;50.708;7.906;2023-12-22T04:51:45;10.17;;;2.17;;
77206;SDS011;66190;50.708;7.906;2023-12-22T04:54:10;8.97;;;2.43;;
77206;SDS011;66190;50.708;7.906;2023-12-22T04:56:35;7.23;;;2.10;;
77206;SDS011;66190;50.708;7.906;2023-12-22T04:59:01;13.52;;;2.88;;
77206;SDS011;66190;50.708;7.906;2023-12-22T05:01:26;11.90;;;2.10;;
77206;SDS011;66190;50.708;7.906;2023-12-22T05:03:52;8.40;;;1.53;;
77206;SDS011;66190;50.708;7.906;2023-12-22T05:06:19;5.35;;;0.80;;
77206;SDS011;66190;50.708;7.906;2023-12-22T05:08:44;9.80;;;1.40;;
77206;SDS011;66190;50.708;7.906;2023-12-22T05:11:10;6.47;;;0.90;;
77206;SDS011;66190;50.708;7.906;2023-12-22T05:13:35;4.32;;;0.80;;
77206;SDS011;66190;50.708;7.906;2023-12-22T05:16:01;5.37;;;0.80;;
77206;SDS011;66190;50.708;7.906;2023-12-22T05:18:27;3.95;;;0.70;;
77206;SDS011;66190;50.708;7.906;2023-12-22T05:20:52;4.13;;;0.60;;
77206;SDS011;66190;50.708;7.906;2023-12-22T05:23:18;3.15;;;0.50;;
77206;SDS011;66190;50.708;7.906;2023-12-22T05:25:44;2.20;;;0.43;;
77206;SDS011;66190;50.708;7.906;2023-12-22T05:28:09;3.07;;;0.93;;
77206;SDS011;66190;50.708;7.906;2023-12-22T05:30:35;6.75;;;2.40;;
77206;SDS011;66190;50.708;7.906;2023-12-22T05:33:00;4.13;;;0.57;;
77206;SDS011;66190;50.708;7.906;2023-12-22T05:35:26;5.03;;;1.23;;
77206;SDS011;66190;50.708;7.906;2023-12-22T05:37:51;5.67;;;1.80;;
77206;SDS011;66190;50.708;7.906;2023-12-22T05:40:17;6.60;;;1.10;;
77206;SDS011;66190;50.708;7.906;2023-12-22T05:42:42;3.22;;;0.80;;
77206;SDS011;66190;50.708;7.906;2023-12-22T05:45:08;4.40;;;1.30;;
77206;SDS011;66190;50.708;7.906;2023-12-22T05:47:36;3.72;;;0.90;;
77206;SDS011;66190;50.708;7.906;2023-12-22T05:50:01;5.27;;;0.93;;
77206;SDS011;66190;50.708;7.906;2023-12-22T05:52:27;5.53;;;1.20;;
77206;SDS011;66190;50.708;7.906;2023-12-22T05:54:52;5.63;;;0.80;;
77206;SDS011;66190;50.708;7.906;2023-12-22T05:57:19;7.57;;;1.25;;
77206;SDS011;66190;50.708;7.906;2023-12-22T05:59:44;5.55;;;1.23;;
77206;SDS011;66190;50.708;7.906;2023-12-22T06:02:10;5.80;;;1.48;;
77206;SDS011;66190;50.708;7.906;2023-12-22T06:04:35;7.70;;;1.63;;
77206;SDS011;66190;50.708;7.906;2023-12-22T06:07:01;6.00;;;1.70;;
77206;SDS011;66190;50.708;7.906;2023-12-22T06:09:26;6.07;;;1.77;;
77206;SDS011;66190;50.708;7.906;2023-12-22T06:11:51;9.50;;;1.83;;
77206;SDS011;66190;50.708;7.906;2023-12-22T06:14:17;11.38;;;2.30;;
77206;SDS011;66190;50.708;7.906;2023-12-22T06:16:42;9.60;;;2.17;;
77206;SDS011;66190;50.708;7.906;2023-12-22T06:19:08;9.00;;;1.30;;
77206;SDS011;66190;50.708;7.906;2023-12-22T06:21:37;10.13;;;1.40;;
77206;SDS011;66190;50.708;7.906;2023-12-22T06:24:03;7.80;;;1.20;;
77206;SDS011;66190;50.708;7.906;2023-12-22T06:26:28;11.30;;;1.77;;
77206;SDS011;66190;50.708;7.906;2023-12-22T06:28:54;8.32;;;1.52;;
77206;SDS011;66190;50.708;7.906;2023-12-22T06:31:20;9.37;;;1.70;;
77206;SDS011;66190;50.708;7.906;2023-12-22T06:33:46;10.35;;;2.20;;
77206;SDS011;66190;50.708;7.906;2023-12-22T06:36:22;9.57;;;1.43;;
77206;SDS011;66190;50.708;7.906;2023-12-22T06:38:52;4.15;;;1.38;;
77206;SDS011;66190;50.708;7.906;2023-12-22T06:41:26;8.38;;;1.38;;
77206;SDS011;66190;50.708;7.906;2023-12-22T06:43:53;9.07;;;1.35;;
77206;SDS011;66190;50.708;7.906;2023-12-22T06:46:19;11.90;;;1.97;;
77206;SDS011;66190;50.708;7.906;2023-12-22T06:48:46;7.60;;;1.80;;
77206;SDS011;66190;50.708;7.906;2023-12-22T06:51:21;9.33;;;1.00;;
77206;SDS011;66190;50.708;7.906;2023-12-22T06:53:48;7.93;;;1.88;;
77206;SDS011;66190;50.708;7.906;2023-12-22T06:56:20;10.95;;;3.15;;
77206;SDS011;66190;50.708;7.906;2023-12-22T06:58:50;8.63;;;1.52;;
77206;SDS011;66190;50.708;7.906;2023-12-22T07:01:19;8.90;;;1.80;;
77206;SDS011;66190;50.708;7.906;2023-12-22T07:03:46;14.68;;;2.55;;
77206;SDS011;66190;50.708;7.906;2023-12-22T07:06:13;10.43;;;2.40;;
77206;SDS011;66190;50.708;7.906;2023-12-22T07:08:42;11.02;;;2.03;;
77206;SDS011;66190;50.708;7.906;2023-12-22T07:11:08;6.35;;;1.63;;
77206;SDS011;66190;50.708;7.906;2023-12-22T07:13:34;8.13;;;1.20;;
77206;SDS011;66190;50.708;7.906;2023-12-22T07:16:00;9.57;;;1.27;;
77206;SDS011;66190;50.708;7.906;2023-12-22T07:18:27;9.63;;;2.20;;
77206;SDS011;66190;50.708;7.906;2023-12-22T07:20:55;8.52;;;1.20;;
77206;SDS011;66190;50.708;7.906;2023-12-22T07:23:22;9.98;;;2.53;;
77206;SDS011;66190;50.708;7.906;2023-12-22T07:25:47;9.53;;;1.87;;
77206;SDS011;66190;50.708;7.906;2023-12-22T07:28:13;12.30;;;1.90;;
77206;SDS011;66190;50.708;7.906;2023-12-22T07:30:38;8.40;;;1.40;;
77206;SDS011;66190;50.708;7.906;2023-12-22T07:33:04;15.63;;;2.07;;
77206;SDS011;66190;50.708;7.906;2023-12-22T07:35:29;6.00;;;1.07;;
77206;SDS011;66190;50.708;7.906;2023-12-22T07:37:54;7.30;;;1.47;;
77206;SDS011;66190;50.708;7.906;2023-12-22T07:40:20;13.10;;;2.15;;
77206;SDS011;66190;50.708;7.906;2023-12-22T07:42:45;7.33;;;1.23;;
77206;SDS011;66190;50.708;7.906;2023-12-22T07:45:11;11.50;;;1.50;;
77206;SDS011;66190;50.708;7.906;2023-12-22T07:47:36;7.00;;;1.23;;
77206;SDS011;66190;50.708;7.906;2023-12-22T07:50:02;7.20;;;1.95;;
77206;SDS011;66190;50.708;7.906;2023-12-22T07:52:28;9.70;;;1.50;;
77206;SDS011;66190;50.708;7.906;2023-12-22T07:54:54;4.95;;;0.95;;
77206;SDS011;66190;50.708;7.906;2023-12-22T07:57:19;7.13;;;1.27;;
77206;SDS011;66190;50.708;7.906;2023-12-22T07:59:45;6.00;;;1.00;;
77206;SDS011;66190;50.708;7.906;2023-12-22T08:02:10;5.93;;;1.10;;
77206;SDS011;66190;50.708;7.906;2023-12-22T08:04:36;7.95;;;1.38;;
77206;SDS011;66190;50.708;7.906;2023-12-22T08:07:02;3.13;;;0.60;;
77206;SDS011;66190;50.708;7.906;2023-12-22T08:09:27;4.72;;;0.80;;
77206;SDS011;66190;50.708;7.906;2023-12-22T08:11:53;2.30;;;0.40;;
77206;SDS011;66190;50.708;7.906;2023-12-22T08:14:18;3.00;;;0.60;;
77206;SDS011;66190;50.708;7.906;2023-12-22T08:16:44;5.70;;;0.90;;
77206;SDS011;66190;50.708;7.906;2023-12-22T08:19:10;5.07;;;1.00;;
77206;SDS011;66190;50.708;7.906;2023-12-22T08:21:35;7.57;;;1.50;;
77206;SDS011;66190;50.708;7.906;2023-12-22T08:24:01;7.80;;;1.55;;
77206;SDS011;66190;50.708;7.906;2023-12-22T08:26:26;5.00;;;1.77;;
77206;SDS011;66190;50.708;7.906;2023-12-22T08:28:52;5.33;;;0.70;;
77206;SDS011;66190;50.708;7.906;2023-12-22T08:31:17;5.97;;;1.20;;
77206;SDS011;66190;50.708;7.906;2023-12-22T08:33:42;5.97;;;0.80;;
77206;SDS011;66190;50.708;7.906;2023-12-22T08:36:09;5.85;;;0.85;;
77206;SDS011;66190;50.708;7.906;2023-12-22T08:38:34;2.93;;;0.60;;
77206;SDS011;66190;50.708;7.906;2023-12-22T08:41:01;7.90;;;1.08;;
77206;SDS011;66190;50.708;7.906;2023-12-22T08:43:27;4.77;;;0.73;;
77206;SDS011;66190;50.708;7.906;2023-12-22T08:45:52;6.07;;;0.88;;
77206;SDS011;66190;50.708;7.906;2023-12-22T08:48:18;5.93;;;1.30;;
77206;SDS011;66190;50.708;7.906;2023-12-22T08:50:43;5.97;;;1.17;;
77206;SDS011;66190;50.708;7.906;2023-12-22T08:53:09;6.07;;;1.20;;
77206;SDS011;66190;50.708;7.906;2023-12-22T08:55:34;6.45;;;1.02;;
77206;SDS011;66190;50.708;7.906;2023-12-22T08:57:59;5.30;;;1.23;;
77206;SDS011;66190;50.708;7.906;2023-12-22T09:00:25;7.57;;;1.50;;
77206;SDS011;66190;50.708;7.906;2023-12-22T09:02:51;7.10;;;1.50;;
77206;SDS011;66190;50.708;7.906;2023-12-22T09:05:16;7.78;;;1.40;;
77206;SDS011;66190;50.708;7.906;2023-12-22T09:07:43;7.40;;;1.47;;
77206;SDS011;66190;50.708;7.906;2023-12-22T09:10:09;10.90;;;2.53;;
77206;SDS011;66190;50.708;7.906;2023-12-22T09:12:35;6.57;;;1.30;;
77206;SDS011;66190;50.708;7.906;2023-12-22T09:15:01;5.83;;;1.50;;
77206;SDS011;66190;50.708;7.906;2023-12-22T09:17:27;8.98;;;2.05;;
77206;SDS011;66190;50.708;7.906;2023-12-22T09:19:53;9.57;;;1.60;;
77206;SDS011;66190;50.708;7.906;2023-12-22T09:22:18;9.23;;;1.88;;
77206;SDS011;66190;50.708;7.906;2023-12-22T09:24:44;8.20;;;1.80;;
77206;SDS011;66190;50.708;7.906;2023-12-22T09:27:09;6.37;;;1.60;;
77206;SDS011;66190;50.708;7.906;2023-12-22T09:29:35;6.53;;;1.80;;
77206;SDS011;66190;50.708;7.906;2023-12-22T09:32:01;13.45;;;2.40;;
77206;SDS011;66190;50.708;7.906;2023-12-22T09:34:26;15.40;;;3.20;;
77206;SDS011;66190;50.708;7.906;2023-12-22T09:36:55;12.43;;;2.75;;
77206;SDS011;66190;50.708;7.906;2023-12-22T09:39:21;10.55;;;2.33;;
77206;SDS011;66190;50.708;7.906;2023-12-22T09:41:50;14.33;;;2.87;;
77206;SDS011;66190;50.708;7.906;2023-12-22T09:44:19;10.45;;;2.78;;
77206;SDS011;66190;50.708;7.906;2023-12-22T09:46:48;13.93;;;3.65;;
77206;SDS011;66190;50.708;7.906;2023-12-22T09:49:16;12.18;;;2.15;;
77206;SDS011;66190;50.708;7.906;2023-12-22T09:51:43;15.40;;;2.83;;
77206;SDS011;66190;50.708;7.906;2023-12-22T09:54:09;13.60;;;2.63;;
77206;SDS011;66190;50.708;7.906;2023-12-22T09:56:36;12.70;;;2.33;;
77206;SDS011;66190;50.708;7.906;2023-12-22T09:59:07;17.55;;;3.50;;
77206;SDS011;66190;50.708;7.906;2023-12-22T10:01:38;18.88;;;4.10;;
77206;SDS011;66190;50.708;7.906;2023-12-22T10:04:09;22.97;;;5.50;;
77206;SDS011;66190;50.708;7.906;2023-12-22T10:06:35;23.17;;;6.43;;
77206;SDS011;66190;50.708;7.906;2023-12-22T10:09:01;14.68;;;2.55;;
77206;SDS011;66190;50.708;7.906;2023-12-22T10:11:30;11.63;;;3.50;;
77206;SDS011;66190;50.708;7.906;2023-12-22T10:13:57;13.47;;;2.73;;
77206;SDS011;66190;50.708;7.906;2023-12-22T10:16:24;13.68;;;2.78;;
77206;SDS011;66190;50.708;7.906;2023-12-22T10:18:50;13.15;;;3.03;;
77206;SDS011;66190;50.708;7.906;2023-12-22T10:21:16;9.07;;;2.40;;
77206;SDS011;66190;50.708;7.906;2023-12-22T10:23:42;10.18;;;3.03;;
77206;SDS011;66190;50.708;7.906;2023-12-22T10:26:10;18.10;;;4.33;;
77206;SDS011;66190;50.708;7.906;2023-12-22T10:28:38;13.68;;;3.42;;
77206;SDS011;66190;50.708;7.906;2023-12-22T10:31:06;10.53;;;2.70;;
77206;SDS011;66190;50.708;7.906;2023-12-22T10:33:32;11.85;;;2.47;;
77206;SDS011;66190;50.708;7.906;2023-12-22T10:35:58;9.95;;;2.50;;
77206;SDS011;66190;50.708;7.906;2023-12-22T10:38:25;11.70;;;3.20;;
77206;SDS011;66190;50.708;7.906;2023-12-22T10:40:52;9.05;;;1.80;;
77206;SDS011;66190;50.708;7.906;2023-12-22T10:43:17;9.50;;;2.30;;
77206;SDS011;66190;50.708;7.906;2023-12-22T10:45:43;10.17;;;1.90;;
77206;SDS011;66190;50.708;7.906;2023-12-22T10:48:08;10.30;;;2.93;;
77206;SDS011;66190;50.708;7.906;2023-12-22T10:50:35;14.35;;;2.90;;
77206;SDS011;66190;50.708;7.906;2023-12-22T10:53:01;9.40;;;2.07;;
77206;SDS011;66190;50.708;7.906;2023-12-22T10:55:26;12.93;;;2.63;;
77206;SDS011;66190;50.708;7.906;2023-12-22T10:57:52;10.07;;;1.37;;
77206;SDS011;66190;50.708;7.906;2023-12-22T11:00:19;8.15;;;1.58;;
77206;SDS011;66190;50.708;7.906;2023-12-22T11:02:49;7.83;;;1.60;;
77206;SDS011;66190;50.708;7.906;2023-12-22T11:05:20;5.10;;;1.50;;
77206;SDS011;66190;50.708;7.906;2023-12-22T11:07:49;8.35;;;1.23;;
77206;SDS011;66190;50.708;7.906;2023-12-22T11:10:20;9.93;;;2.50;;
77206;SDS011;66190;50.708;7.906;2023-12-22T11:12:46;8.23;;;1.70;;
77206;SDS011;66190;50.708;7.906;2023-12-22T11:15:12;6.97;;;1.53;;
77206;SDS011;66190;50.708;7.906;2023-12-22T11:17:39;6.22;;;1.20;;
77206;SDS011;66190;50.708;7.906;2023-12-22T11:20:08;5.18;;;1.30;;
77206;SDS011;66190;50.708;7.906;2023-12-22T11:22:35;7.03;;;1.67;;
77206;SDS011;66190;50.708;7.906;2023-12-22T11:25:01;4.97;;;1.30;;
77206;SDS011;66190;50.708;7.906;2023-12-22T11:27:28;4.97;;;1.33;;
77206;SDS011;66190;50.708;7.906;2023-12-22T11:29:54;14.05;;;5.15;;
77206;SDS011;66190;50.708;7.906;2023-12-22T11:32:20;11.32;;;3.35;;
77206;SDS011;66190;50.708;7.906;2023-12-22T11:34:46;10.10;;;2.20;;
77206;SDS011;66190;50.708;7.906;2023-12-22T11:37:13;4.88;;;1.08;;
77206;SDS011;66190;50.708;7.906;2023-12-22T11:39:43;5.72;;;1.50;;
77206;SDS011;66190;50.708;7.906;2023-12-22T11:42:10;6.22;;;1.40;;
77206;SDS011;66190;50.708;7.906;2023-12-22T11:44:39;8.20;;;2.20;;
77206;SDS011;66190;50.708;7.906;2023-12-22T11:47:06;6.77;;;2.43;;
77206;SDS011;66190;50.708;7.906;2023-12-22T11:49:33;7.07;;;1.73;;
77206;SDS011;66190;50.708;7.906;2023-12-22T11:52:08;5.95;;;1.75;;
77206;SDS011;66190;50.708;7.906;2023-12-22T11:59:59;7.43;;;1.30;;
77206;SDS011;66190;50.708;7.906;2023-12-22T12:02:47;6.10;;;1.98;;
77206;SDS011;66190;50.708;7.906;2023-12-22T12:05:19;7.65;;;2.10;;
77206;SDS011;66190;50.708;7.906;2023-12-22T12:07:45;8.23;;;2.57;;
77206;SDS011;66190;50.708;7.906;2023-12-22T12:13:08;5.72;;;1.67;;
77206;SDS011;66190;50.708;7.906;2023-12-22T12:15:35;6.13;;;2.10;;
77206;SDS011;66190;50.708;7.906;2023-12-22T12:18:01;7.50;;;2.13;;
77206;SDS011;66190;50.708;7.906;2023-12-22T12:20:28;6.43;;;1.43;;
77206;SDS011;66190;50.708;7.906;2023-12-22T12:22:53;5.85;;;1.52;;
77206;SDS011;66190;50.708;7.906;2023-12-22T12:25:21;5.60;;;1.80;;
77206;SDS011;66190;50.708;7.906;2023-12-22T12:27:50;8.77;;;3.08;;
77206;SDS011;66190;50.708;7.906;2023-12-22T12:30:29;6.73;;;2.07;;
77206;SDS011;66190;50.708;7.906;2023-12-22T12:32:58;6.68;;;2.33;;
77206;SDS011;66190;50.708;7.906;2023-12-22T12:35:28;5.47;;;1.67;;
77206;SDS011;66190;50.708;7.906;2023-12-22T12:37:54;6.32;;;1.80;;
77206;SDS011;66190;50.708;7.906;2023-12-22T12:40:20;7.47;;;1.80;;
77206;SDS011;66190;50.708;7.906;2023-12-22T12:42:49;6.05;;;2.03;;
77206;SDS011;66190;50.708;7.906;2023-12-22T12:45:15;6.55;;;1.85;;
77206;SDS011;66190;50.708;7.906;2023-12-22T12:48:00;4.82;;;1.30;;
77206;SDS011;66190;50.708;7.906;2023-12-22T12:50:26;5.90;;;1.60;;
77206;SDS011;66190;50.708;7.906;2023-12-22T12:52:56;7.40;;;1.73;;
77206;SDS011;66190;50.708;7.906;2023-12-22T12:55:22;5.20;;;1.42;;
77206;SDS011;66190;50.708;7.906;2023-12-22T12:57:49;5.70;;;1.70;;
77206;SDS011;66190;50.708;7.906;2023-12-22T13:00:25;6.43;;;1.20;;
77206;SDS011;66190;50.708;7.906;2023-12-22T13:02:52;6.43;;;1.67;;
77206;SDS011;66190;50.708;7.906;2023-12-22T13:05:23;5.28;;;1.60;;
77206;SDS011;66190;50.708;7.906;2023-12-22T13:07:49;6.15;;;1.55;;
77206;SDS011;66190;50.708;7.906;2023-12-22T13:10:23;5.00;;;1.17;;
77206;SDS011;66190;50.708;7.906;2023-12-22T13:12:52;6.50;;;1.77;;
77206;SDS011;66190;50.708;7.906;2023-12-22T13:15:19;8.80;;;2.70;;
77206;SDS011;66190;50.708;7.906;2023-12-22T13:17:46;5.30;;;1.67;;
77206;SDS011;66190;50.708;7.906;2023-12-22T13:20:12;6.97;;;2.35;;
77206;SDS011;66190;50.708;7.906;2023-12-22T13:22:38;5.47;;;1.70;;
77206;SDS011;66190;50.708;7.906;2023-12-22T13:25:04;6.18;;;1.75;;
77206;SDS011;66190;50.708;7.906;2023-12-22T13:27:30;6.22;;;2.22;;
77206;SDS011;66190;50.708;7.906;2023-12-22T13:29:55;5.80;;;1.53;;
77206;SDS011;66190;50.708;7.906;2023-12-22T13:32:21;7.27;;;2.10;;
77206;SDS011;66190;50.708;7.906;2023-12-22T13:34:50;6.10;;;1.60;;
77206;SDS011;66190;50.708;7.906;2023-12-22T13:37:17;6.10;;;1.45;;
77206;SDS011;66190;50.708;7.906;2023-12-22T13:39:43;5.77;;;1.50;;
77206;SDS011;66190;50.708;7.906;2023-12-22T13:42:15;6.00;;;1.48;;
77206;SDS011;66190;50.708;7.906;2023-12-22T13:44:46;4.70;;;1.40;;
77206;SDS011;66190;50.708;7.906;2023-12-22T13:47:17;5.25;;;1.58;;
77206;SDS011;66190;50.708;7.906;2023-12-22T13:49:47;4.88;;;1.48;;
77206;SDS011;66190;50.708;7.906;2023-12-22T13:52:26;5.57;;;1.50;;
77206;SDS011;66190;50.708;7.906;2023-12-22T13:55:00;11.80;;;3.95;;
77206;SDS011;66190;50.708;7.906;2023-12-22T13:57:27;7.25;;;1.92;;
77206;SDS011;66190;50.708;7.906;2023-12-22T13:59:53;6.38;;;1.58;;
77206;SDS011;66190;50.708;7.906;2023-12-22T14:02:21;5.53;;;1.33;;
77206;SDS011;66190;50.708;7.906;2023-12-22T14:04:48;7.90;;;1.67;;
77206;SDS011;66190;50.708;7.906;2023-12-22T14:07:17;8.75;;;2.13;;
77206;SDS011;66190;50.708;7.906;2023-12-22T14:09:44;6.35;;;1.95;;
77206;SDS011;66190;50.708;7.906;2023-12-22T14:12:09;8.20;;;2.42;;
77206;SDS011;66190;50.708;7.906;2023-12-22T14:14:34;6.90;;;2.20;;
77206;SDS011;66190;50.708;7.906;2023-12-22T14:17:00;4.97;;;1.20;;
77206;SDS011;66190;50.708;7.906;2023-12-22T14:19:25;7.60;;;2.00;;
77206;SDS011;66190;50.708;7.906;2023-12-22T14:21:51;6.83;;;1.80;;
77206;SDS011;66190;50.708;7.906;2023-12-22T14:24:16;8.70;;;2.00;;
77206;SDS011;66190;50.708;7.906;2023-12-22T14:26:54;6.70;;;1.23;;
77206;SDS011;66190;50.708;7.906;2023-12-22T14:29:20;4.43;;;1.30;;
77206;SDS011;66190;50.708;7.906;2023-12-22T14:31:49;5.45;;;1.65;;
77206;SDS011;66190;50.708;7.906;2023-12-22T14:34:16;7.63;;;1.63;;
77206;SDS011;66190;50.708;7.906;2023-12-22T14:36:42;6.18;;;2.00;;
77206;SDS011;66190;50.708;7.906;2023-12-22T14:39:08;5.72;;;1.52;;
77206;SDS011;66190;50.708;7.906;2023-12-22T14:41:35;6.93;;;1.60;;
77206;SDS011;66190;50.708;7.906;2023-12-22T14:44:01;5.75;;;1.52;;
77206;SDS011;66190;50.708;7.906;2023-12-22T14:46:26;4.97;;;1.53;;
77206;SDS011;66190;50.708;7.906;2023-12-22T14:48:52;6.20;;;1.95;;
77206;SDS011;66190;50.708;7.906;2023-12-22T14:51:19;6.32;;;1.60;;